sensor_id;sensor_type;location;lat;lon;timestamp;P1;durP1;ratioP1;P2;durP2;ratioP2
6928;SDS011;3504;52.616;13.238;2024-03-02T00:01:11;70.50;;;41.80;;
6928;SDS011;3504;52.616;13.238;2024-03-02T00:06:11;65.03;;;40.43;;
6928;SDS011;3504;52.616;13.238;2024-03-02T00:11:12;64.17;;;42.07;;
6928;SDS011;3504;52.616;13.238;2024-03-02T00:16:14;65.93;;;43.33;;
6928;SDS011;3504;52.616;13.238;2024-03-02T00:21:16;67.30;;;41.80;;
6928;SDS011;3504;52.616;13.238;2024-03-02T00:26:20;67.57;;;43.00;;
6928;SDS011;3504;52.616;13.238;2024-03-02T00:31:21;71.00;;;44.17;;
6928;SDS011;3504;52.616;13.238;2024-03-02T00:36:24;66.60;;;42.00;;
6928;SDS011;3504;52.616;13.238;2024-03-02T00:41:27;70.10;;;41.80;;
6928;SDS011;3504;52.616;13.238;2024-03-02T00:46:36;62.07;;;40.33;;
6928;SDS011;3504;52.616;13.238;2024-03-02T00:51:38;64.07;;;40.60;;
6928;SDS011;3504;52.616;13.238;2024-03-02T00:56:39;60.97;;;40.00;;
6928;SDS011;3504;52.616;13.238;2024-03-02T01:01:42;68.20;;;42.03;;
6928;SDS011;3504;52.616;13.238;2024-03-02T01:06:43;64.70;;;41.07;;
6928;SDS011;3504;52.616;13.238;2024-03-02T01:11:43;60.77;;;40.83;;
6928;SDS011;3504;52.616;13.238;2024-03-02T01:16:44;66.10;;;40.40;;
6928;SDS011;3504;52.616;13.238;2024-03-02T01:21:44;68.37;;;43.63;;
6928;SDS011;3504;52.616;13.238;2024-03-02T01:26:45;66.20;;;40.90;;
6928;SDS011;3504;52.616;13.238;2024-03-02T01:31:46;78.37;;;47.73;;
6928;SDS011;3504;52.616;13.238;2024-03-02T01:36:46;78.07;;;47.33;;
6928;SDS011;3504;52.616;13.238;2024-03-02T01:41:47;71.77;;;44.30;;
6928;SDS011;3504;52.616;13.238;2024-03-02T01:46:47;73.07;;;46.40;;
6928;SDS011;3504;52.616;13.238;2024-03-02T01:51:48;71.33;;;44.43;;
6928;SDS011;3504;52.616;13.238;2024-03-02T01:56:49;72.83;;;44.10;;
6928;SDS011;3504;52.616;13.238;2024-03-02T02:01:49;78.77;;;47.90;;
6928;SDS011;3504;52.616;13.238;2024-03-02T02:06:49;70.10;;;44.47;;
6928;SDS011;3504;52.616;13.238;2024-03-02T02:11:50;69.73;;;44.07;;
6928;SDS011;3504;52.616;13.238;2024-03-02T02:16:51;71.13;;;42.53;;
6928;SDS011;3504;52.616;13.238;2024-03-02T02:21:52;66.17;;;41.37;;
6928;SDS011;3504;52.616;13.238;2024-03-02T02:26:52;72.27;;;44.43;;
6928;SDS011;3504;52.616;13.238;2024-03-02T02:31:53;81.07;;;45.20;;
6928;SDS011;3504;52.616;13.238;2024-03-02T02:36:54;71.93;;;43.60;;
6928;SDS011;3504;52.616;13.238;2024-03-02T02:41:54;68.07;;;44.23;;
6928;SDS011;3504;52.616;13.238;2024-03-02T02:46:55;69.00;;;43.27;;
6928;SDS011;3504;52.616;13.238;2024-03-02T02:51:56;68.50;;;43.10;;
6928;SDS011;3504;52.616;13.238;2024-03-02T02:56:56;60.67;;;39.37;;
6928;SDS011;3504;52.616;13.238;2024-03-02T03:01:56;68.17;;;41.73;;
6928;SDS011;3504;52.616;13.238;2024-03-02T03:06:57;62.53;;;41.27;;
6928;SDS011;3504;52.616;13.238;2024-03-02T03:11:58;73.30;;;43.63;;
6928;SDS011;3504;52.616;13.238;2024-03-02T03:17:01;71.07;;;42.10;;
6928;SDS011;3504;52.616;13.238;2024-03-02T03:22:01;75.83;;;45.40;;
6928;SDS011;3504;52.616;13.238;2024-03-02T03:27:03;79.17;;;46.03;;
6928;SDS011;3504;52.616;13.238;2024-03-02T03:32:04;91.13;;;50.20;;
6928;SDS011;3504;52.616;13.238;2024-03-02T03:37:06;100.80;;;54.23;;
6928;SDS011;3504;52.616;13.238;2024-03-02T03:42:07;86.80;;;52.10;;
6928;SDS011;3504;52.616;13.238;2024-03-02T03:47:07;98.37;;;53.37;;
6928;SDS011;3504;52.616;13.238;2024-03-02T03:52:08;98.80;;;54.53;;
6928;SDS011;3504;52.616;13.238;2024-03-02T03:57:08;95.07;;;53.07;;
6928;SDS011;3504;52.616;13.238;2024-03-02T04:02:09;89.90;;;51.30;;
6928;SDS011;3504;52.616;13.238;2024-03-02T04:07:11;85.57;;;48.77;;
6928;SDS011;3504;52.616;13.238;2024-03-02T04:12:12;93.60;;;50.63;;
6928;SDS011;3504;52.616;13.238;2024-03-02T04:17:13;99.73;;;53.97;;
6928;SDS011;3504;52.616;13.238;2024-03-02T04:22:13;83.77;;;49.10;;
6928;SDS011;3504;52.616;13.238;2024-03-02T04:27:14;84.17;;;50.47;;
6928;SDS011;3504;52.616;13.238;2024-03-02T04:32:17;85.73;;;49.90;;
6928;SDS011;3504;52.616;13.238;2024-03-02T04:37:19;89.40;;;51.63;;
6928;SDS011;3504;52.616;13.238;2024-03-02T04:42:20;74.90;;;44.90;;
6928;SDS011;3504;52.616;13.238;2024-03-02T04:47:20;77.83;;;46.50;;
6928;SDS011;3504;52.616;13.238;2024-03-02T04:52:22;83.30;;;48.23;;
6928;SDS011;3504;52.616;13.238;2024-03-02T04:57:23;83.13;;;48.13;;
6928;SDS011;3504;52.616;13.238;2024-03-02T05:02:23;72.30;;;43.00;;
6928;SDS011;3504;52.616;13.238;2024-03-02T05:07:24;75.67;;;46.50;;
6928;SDS011;3504;52.616;13.238;2024-03-02T05:12:24;75.33;;;46.17;;
6928;SDS011;3504;52.616;13.238;2024-03-02T05:17:43;77.37;;;47.13;;
6928;SDS011;3504;52.616;13.238;2024-03-02T05:22:43;72.73;;;44.63;;
6928;SDS011;3504;52.616;13.238;2024-03-02T05:27:44;80.57;;;48.70;;
6928;SDS011;3504;52.616;13.238;2024-03-02T05:32:44;73.23;;;45.03;;
6928;SDS011;3504;52.616;13.238;2024-03-02T05:37:45;85.13;;;49.80;;
6928;SDS011;3504;52.616;13.238;2024-03-02T05:42:46;86.43;;;53.07;;
6928;SDS011;3504;52.616;13.238;2024-03-02T05:47:47;94.43;;;53.07;;
6928;SDS011;3504;52.616;13.238;2024-03-02T05:52:47;98.53;;;54.87;;
6928;SDS011;3504;52.616;13.238;2024-03-02T05:57:48;101.07;;;55.47;;
6928;SDS011;3504;52.616;13.238;2024-03-02T06:03:06;97.33;;;55.03;;
6928;SDS011;3504;52.616;13.238;2024-03-02T06:08:09;100.67;;;56.33;;
6928;SDS011;3504;52.616;13.238;2024-03-02T06:13:09;93.13;;;52.47;;
6928;SDS011;3504;52.616;13.238;2024-03-02T06:18:10;96.60;;;52.67;;
6928;SDS011;3504;52.616;13.238;2024-03-02T06:23:10;101.10;;;55.00;;
6928;SDS011;3504;52.616;13.238;2024-03-02T06:28:11;100.13;;;54.23;;
6928;SDS011;3504;52.616;13.238;2024-03-02T06:33:12;98.10;;;54.93;;
6928;SDS011;3504;52.616;13.238;2024-03-02T06:38:12;94.40;;;53.73;;
6928;SDS011;3504;52.616;13.238;2024-03-02T06:43:13;97.20;;;52.77;;
6928;SDS011;3504;52.616;13.238;2024-03-02T06:48:13;90.53;;;53.47;;
6928;SDS011;3504;52.616;13.238;2024-03-02T06:53:18;90.77;;;51.47;;
6928;SDS011;3504;52.616;13.238;2024-03-02T06:58:19;98.20;;;53.57;;
6928;SDS011;3504;52.616;13.238;2024-03-02T07:03:20;83.50;;;49.07;;
6928;SDS011;3504;52.616;13.238;2024-03-02T07:08:20;90.33;;;50.73;;
6928;SDS011;3504;52.616;13.238;2024-03-02T07:13:21;89.77;;;51.37;;
6928;SDS011;3504;52.616;13.238;2024-03-02T07:18:21;98.30;;;54.40;;
6928;SDS011;3504;52.616;13.238;2024-03-02T07:23:22;93.50;;;52.17;;
6928;SDS011;3504;52.616;13.238;2024-03-02T07:28:27;91.87;;;50.63;;
6928;SDS011;3504;52.616;13.238;2024-03-02T07:33:28;98.20;;;54.60;;
6928;SDS011;3504;52.616;13.238;2024-03-02T07:38:28;92.23;;;51.17;;
6928;SDS011;3504;52.616;13.238;2024-03-02T07:43:29;95.50;;;50.13;;
6928;SDS011;3504;52.616;13.238;2024-03-02T07:48:33;94.23;;;52.63;;
6928;SDS011;3504;52.616;13.238;2024-03-02T07:53:34;87.13;;;49.30;;
6928;SDS011;3504;52.616;13.238;2024-03-02T07:58:34;93.27;;;51.20;;
6928;SDS011;3504;52.616;13.238;2024-03-02T08:03:35;90.27;;;49.83;;
6928;SDS011;3504;52.616;13.238;2024-03-02T08:08:39;86.43;;;50.53;;
6928;SDS011;3504;52.616;13.238;2024-03-02T08:13:40;90.30;;;50.63;;
6928;SDS011;3504;52.616;13.238;2024-03-02T08:18:41;93.70;;;49.93;;
6928;SDS011;3504;52.616;13.238;2024-03-02T08:23:42;87.37;;;49.37;;
6928;SDS011;3504;52.616;13.238;2024-03-02T08:28:43;89.00;;;50.70;;
6928;SDS011;3504;52.616;13.238;2024-03-02T08:33:44;85.37;;;49.20;;
6928;SDS011;3504;52.616;13.238;2024-03-02T08:38:44;84.03;;;50.33;;
6928;SDS011;3504;52.616;13.238;2024-03-02T08:43:45;92.80;;;51.37;;
6928;SDS011;3504;52.616;13.238;2024-03-02T08:48:46;81.60;;;48.57;;
6928;SDS011;3504;52.616;13.238;2024-03-02T08:53:47;87.93;;;50.03;;
6928;SDS011;3504;52.616;13.238;2024-03-02T08:58:51;84.17;;;49.47;;
6928;SDS011;3504;52.616;13.238;2024-03-02T09:03:52;78.93;;;46.23;;
6928;SDS011;3504;52.616;13.238;2024-03-02T09:08:53;77.67;;;46.20;;
6928;SDS011;3504;52.616;13.238;2024-03-02T09:13:53;76.10;;;46.60;;
6928;SDS011;3504;52.616;13.238;2024-03-02T09:18:56;81.67;;;48.67;;
6928;SDS011;3504;52.616;13.238;2024-03-02T09:23:57;86.17;;;48.43;;
6928;SDS011;3504;52.616;13.238;2024-03-02T09:28:57;83.00;;;47.17;;
6928;SDS011;3504;52.616;13.238;2024-03-02T09:33:58;84.63;;;45.97;;
6928;SDS011;3504;52.616;13.238;2024-03-02T09:38:58;83.13;;;47.43;;
6928;SDS011;3504;52.616;13.238;2024-03-02T09:43:59;74.47;;;45.80;;
6928;SDS011;3504;52.616;13.238;2024-03-02T09:49:00;76.03;;;45.97;;
6928;SDS011;3504;52.616;13.238;2024-03-02T09:54:00;74.57;;;46.10;;
6928;SDS011;3504;52.616;13.238;2024-03-02T09:59:01;73.77;;;47.43;;
6928;SDS011;3504;52.616;13.238;2024-03-02T10:04:01;76.07;;;48.03;;
6928;SDS011;3504;52.616;13.238;2024-03-02T10:09:02;72.20;;;44.20;;
6928;SDS011;3504;52.616;13.238;2024-03-02T10:14:10;72.63;;;44.53;;
6928;SDS011;3504;52.616;13.238;2024-03-02T10:19:16;68.37;;;41.67;;
6928;SDS011;3504;52.616;13.238;2024-03-02T10:24:21;69.67;;;44.90;;
6928;SDS011;3504;52.616;13.238;2024-03-02T10:29:22;61.33;;;40.07;;
6928;SDS011;3504;52.616;13.238;2024-03-02T10:34:23;63.57;;;39.40;;
6928;SDS011;3504;52.616;13.238;2024-03-02T10:39:23;61.00;;;38.37;;
6928;SDS011;3504;52.616;13.238;2024-03-02T10:44:24;60.80;;;38.97;;
6928;SDS011;3504;52.616;13.238;2024-03-02T10:49:26;53.03;;;35.90;;
6928;SDS011;3504;52.616;13.238;2024-03-02T10:54:29;58.83;;;36.60;;
6928;SDS011;3504;52.616;13.238;2024-03-02T10:59:36;52.17;;;35.53;;
6928;SDS011;3504;52.616;13.238;2024-03-02T11:04:39;45.83;;;31.20;;
6928;SDS011;3504;52.616;13.238;2024-03-02T11:09:43;41.53;;;28.97;;
6928;SDS011;3504;52.616;13.238;2024-03-02T11:14:52;46.13;;;29.80;;
6928;SDS011;3504;52.616;13.238;2024-03-02T11:19:55;42.43;;;28.47;;
6928;SDS011;3504;52.616;13.238;2024-03-02T11:24:56;43.47;;;28.27;;
6928;SDS011;3504;52.616;13.238;2024-03-02T11:29:57;38.87;;;28.23;;
6928;SDS011;3504;52.616;13.238;2024-03-02T11:34:57;40.73;;;27.93;;
6928;SDS011;3504;52.616;13.238;2024-03-02T11:39:58;39.77;;;26.33;;
6928;SDS011;3504;52.616;13.238;2024-03-02T11:44:59;38.27;;;25.93;;
6928;SDS011;3504;52.616;13.238;2024-03-02T11:49:59;33.20;;;24.50;;
6928;SDS011;3504;52.616;13.238;2024-03-02T11:55:00;35.80;;;24.43;;
6928;SDS011;3504;52.616;13.238;2024-03-02T12:00:03;35.83;;;24.23;;
6928;SDS011;3504;52.616;13.238;2024-03-02T12:05:06;36.10;;;24.30;;
6928;SDS011;3504;52.616;13.238;2024-03-02T12:10:09;38.30;;;25.30;;
6928;SDS011;3504;52.616;13.238;2024-03-02T12:15:09;33.07;;;23.20;;
6928;SDS011;3504;52.616;13.238;2024-03-02T12:20:11;29.20;;;21.00;;
6928;SDS011;3504;52.616;13.238;2024-03-02T12:25:12;31.53;;;22.23;;
6928;SDS011;3504;52.616;13.238;2024-03-02T12:30:12;33.63;;;22.90;;
6928;SDS011;3504;52.616;13.238;2024-03-02T12:35:17;30.83;;;21.40;;
6928;SDS011;3504;52.616;13.238;2024-03-02T12:40:19;33.30;;;22.20;;
6928;SDS011;3504;52.616;13.238;2024-03-02T12:45:22;28.40;;;20.20;;
6928;SDS011;3504;52.616;13.238;2024-03-02T12:50:25;29.63;;;20.63;;
6928;SDS011;3504;52.616;13.238;2024-03-02T12:55:25;27.17;;;19.60;;
6928;SDS011;3504;52.616;13.238;2024-03-02T13:00:26;28.87;;;19.97;;
6928;SDS011;3504;52.616;13.238;2024-03-02T13:05:29;29.80;;;19.17;;
6928;SDS011;3504;52.616;13.238;2024-03-02T13:10:31;30.80;;;22.33;;
6928;SDS011;3504;52.616;13.238;2024-03-02T13:15:35;29.97;;;21.73;;
6928;SDS011;3504;52.616;13.238;2024-03-02T13:20:36;32.40;;;23.23;;
6928;SDS011;3504;52.616;13.238;2024-03-02T13:25:37;34.13;;;23.03;;
6928;SDS011;3504;52.616;13.238;2024-03-02T13:30:37;31.03;;;22.27;;
6928;SDS011;3504;52.616;13.238;2024-03-02T13:35:38;34.50;;;22.77;;
6928;SDS011;3504;52.616;13.238;2024-03-02T13:40:38;32.27;;;23.40;;
6928;SDS011;3504;52.616;13.238;2024-03-02T13:45:40;34.97;;;23.63;;
6928;SDS011;3504;52.616;13.238;2024-03-02T13:50:41;33.70;;;22.90;;
6928;SDS011;3504;52.616;13.238;2024-03-02T13:55:41;30.70;;;21.20;;
6928;SDS011;3504;52.616;13.238;2024-03-02T14:00:42;31.87;;;22.27;;
6928;SDS011;3504;52.616;13.238;2024-03-02T14:05:45;33.80;;;23.47;;
6928;SDS011;3504;52.616;13.238;2024-03-02T14:10:49;35.03;;;22.87;;
6928;SDS011;3504;52.616;13.238;2024-03-02T14:15:50;27.73;;;19.90;;
6928;SDS011;3504;52.616;13.238;2024-03-02T14:20:50;25.47;;;17.73;;
6928;SDS011;3504;52.616;13.238;2024-03-02T14:25:52;25.03;;;17.40;;
6928;SDS011;3504;52.616;13.238;2024-03-02T14:30:53;22.57;;;16.60;;
6928;SDS011;3504;52.616;13.238;2024-03-02T14:35:54;23.67;;;17.03;;
6928;SDS011;3504;52.616;13.238;2024-03-02T14:40:55;26.47;;;18.13;;
6928;SDS011;3504;52.616;13.238;2024-03-02T14:45:55;21.70;;;16.23;;
6928;SDS011;3504;52.616;13.238;2024-03-02T14:50:56;21.20;;;16.77;;
6928;SDS011;3504;52.616;13.238;2024-03-02T14:55:57;21.53;;;16.10;;
6928;SDS011;3504;52.616;13.238;2024-03-02T15:00:58;19.40;;;14.57;;
6928;SDS011;3504;52.616;13.238;2024-03-02T15:05:58;21.97;;;14.47;;
6928;SDS011;3504;52.616;13.238;2024-03-02T15:10:59;20.40;;;14.87;;
6928;SDS011;3504;52.616;13.238;2024-03-02T15:16:01;25.90;;;15.80;;
6928;SDS011;3504;52.616;13.238;2024-03-02T15:21:01;23.13;;;14.83;;
6928;SDS011;3504;52.616;13.238;2024-03-02T15:26:02;20.37;;;14.20;;
6928;SDS011;3504;52.616;13.238;2024-03-02T15:31:02;20.00;;;14.00;;
6928;SDS011;3504;52.616;13.238;2024-03-02T15:36:04;18.37;;;13.47;;
6928;SDS011;3504;52.616;13.238;2024-03-02T15:41:05;22.43;;;13.60;;
6928;SDS011;3504;52.616;13.238;2024-03-02T15:46:06;15.10;;;11.60;;
6928;SDS011;3504;52.616;13.238;2024-03-02T15:51:06;16.60;;;11.97;;
6928;SDS011;3504;52.616;13.238;2024-03-02T15:56:07;16.53;;;11.77;;
6928;SDS011;3504;52.616;13.238;2024-03-02T16:01:07;20.83;;;13.50;;
6928;SDS011;3504;52.616;13.238;2024-03-02T16:06:08;19.07;;;13.10;;
6928;SDS011;3504;52.616;13.238;2024-03-02T16:11:08;17.00;;;12.37;;
6928;SDS011;3504;52.616;13.238;2024-03-02T16:16:10;16.57;;;12.73;;
6928;SDS011;3504;52.616;13.238;2024-03-02T16:21:11;15.30;;;11.73;;
6928;SDS011;3504;52.616;13.238;2024-03-02T16:26:12;20.27;;;12.80;;
6928;SDS011;3504;52.616;13.238;2024-03-02T16:31:13;18.30;;;12.30;;
6928;SDS011;3504;52.616;13.238;2024-03-02T16:36:15;19.80;;;12.27;;
6928;SDS011;3504;52.616;13.238;2024-03-02T16:41:16;16.70;;;11.50;;
6928;SDS011;3504;52.616;13.238;2024-03-02T16:46:18;15.77;;;11.30;;
6928;SDS011;3504;52.616;13.238;2024-03-02T16:51:18;14.83;;;10.13;;
6928;SDS011;3504;52.616;13.238;2024-03-02T16:56:19;17.50;;;11.77;;
6928;SDS011;3504;52.616;13.238;2024-03-02T17:01:19;19.80;;;13.97;;
6928;SDS011;3504;52.616;13.238;2024-03-02T17:06:20;21.27;;;15.30;;
6928;SDS011;3504;52.616;13.238;2024-03-02T17:11:20;22.53;;;14.73;;
6928;SDS011;3504;52.616;13.238;2024-03-02T17:16:21;25.60;;;17.60;;
6928;SDS011;3504;52.616;13.238;2024-03-02T17:21:21;28.97;;;20.13;;
6928;SDS011;3504;52.616;13.238;2024-03-02T17:26:23;31.77;;;22.47;;
6928;SDS011;3504;52.616;13.238;2024-03-02T17:31:23;27.27;;;17.23;;
6928;SDS011;3504;52.616;13.238;2024-03-02T17:36:24;30.97;;;19.97;;
6928;SDS011;3504;52.616;13.238;2024-03-02T17:41:24;26.67;;;17.47;;
6928;SDS011;3504;52.616;13.238;2024-03-02T17:46:25;25.07;;;18.33;;
6928;SDS011;3504;52.616;13.238;2024-03-02T17:51:25;28.57;;;18.67;;
6928;SDS011;3504;52.616;13.238;2024-03-02T17:56:26;27.57;;;19.07;;
6928;SDS011;3504;52.616;13.238;2024-03-02T18:01:26;33.73;;;21.97;;
6928;SDS011;3504;52.616;13.238;2024-03-02T18:06:27;32.97;;;22.90;;
6928;SDS011;3504;52.616;13.238;2024-03-02T18:11:28;32.80;;;21.50;;
6928;SDS011;3504;52.616;13.238;2024-03-02T18:16:28;32.97;;;22.80;;
6928;SDS011;3504;52.616;13.238;2024-03-02T18:21:29;52.33;;;37.90;;
6928;SDS011;3504;52.616;13.238;2024-03-02T18:26:29;31.77;;;21.83;;
6928;SDS011;3504;52.616;13.238;2024-03-02T18:31:36;22.77;;;13.70;;
6928;SDS011;3504;52.616;13.238;2024-03-02T18:36:36;21.87;;;13.97;;
6928;SDS011;3504;52.616;13.238;2024-03-02T18:41:37;19.93;;;13.13;;
6928;SDS011;3504;52.616;13.238;2024-03-02T18:46:37;19.63;;;13.47;;
6928;SDS011;3504;52.616;13.238;2024-03-02T18:51:38;24.70;;;14.70;;
6928;SDS011;3504;52.616;13.238;2024-03-02T18:56:41;30.73;;;18.23;;
6928;SDS011;3504;52.616;13.238;2024-03-02T19:01:42;26.47;;;17.03;;
6928;SDS011;3504;52.616;13.238;2024-03-02T19:06:42;24.57;;;15.00;;
6928;SDS011;3504;52.616;13.238;2024-03-02T19:11:44;43.27;;;25.40;;
6928;SDS011;3504;52.616;13.238;2024-03-02T19:16:44;24.93;;;16.37;;
6928;SDS011;3504;52.616;13.238;2024-03-02T19:21:45;20.33;;;13.70;;
6928;SDS011;3504;52.616;13.238;2024-03-02T19:26:46;26.53;;;16.13;;
6928;SDS011;3504;52.616;13.238;2024-03-02T19:31:46;36.57;;;24.50;;
6928;SDS011;3504;52.616;13.238;2024-03-02T19:36:47;30.07;;;19.77;;
6928;SDS011;3504;52.616;13.238;2024-03-02T19:41:47;23.50;;;15.87;;
6928;SDS011;3504;52.616;13.238;2024-03-02T19:46:48;20.53;;;14.20;;
6928;SDS011;3504;52.616;13.238;2024-03-02T19:51:49;21.73;;;12.97;;
6928;SDS011;3504;52.616;13.238;2024-03-02T19:56:50;15.43;;;11.10;;
6928;SDS011;3504;52.616;13.238;2024-03-02T20:01:54;15.97;;;12.47;;
6928;SDS011;3504;52.616;13.238;2024-03-02T20:06:54;20.50;;;14.10;;
6928;SDS011;3504;52.616;13.238;2024-03-02T20:11:55;20.20;;;13.97;;
6928;SDS011;3504;52.616;13.238;2024-03-02T20:16:57;27.73;;;17.93;;
6928;SDS011;3504;52.616;13.238;2024-03-02T20:21:58;56.17;;;37.97;;
6928;SDS011;3504;52.616;13.238;2024-03-02T20:27:01;38.67;;;24.97;;
6928;SDS011;3504;52.616;13.238;2024-03-02T20:32:04;28.63;;;18.97;;
6928;SDS011;3504;52.616;13.238;2024-03-02T20:37:06;22.00;;;15.53;;
6928;SDS011;3504;52.616;13.238;2024-03-02T20:42:07;28.27;;;15.47;;
6928;SDS011;3504;52.616;13.238;2024-03-02T20:47:07;26.20;;;16.80;;
6928;SDS011;3504;52.616;13.238;2024-03-02T20:52:08;22.70;;;14.40;;
6928;SDS011;3504;52.616;13.238;2024-03-02T20:57:09;23.47;;;16.20;;
6928;SDS011;3504;52.616;13.238;2024-03-02T21:02:09;32.37;;;18.17;;
6928;SDS011;3504;52.616;13.238;2024-03-02T21:07:10;25.83;;;16.30;;
6928;SDS011;3504;52.616;13.238;2024-03-02T21:12:11;29.87;;;19.73;;
6928;SDS011;3504;52.616;13.238;2024-03-02T21:17:11;27.60;;;18.60;;
6928;SDS011;3504;52.616;13.238;2024-03-02T21:22:12;27.33;;;18.40;;
6928;SDS011;3504;52.616;13.238;2024-03-02T21:27:12;27.73;;;18.43;;
6928;SDS011;3504;52.616;13.238;2024-03-02T21:32:14;35.73;;;21.80;;
6928;SDS011;3504;52.616;13.238;2024-03-02T21:37:14;37.70;;;23.57;;
6928;SDS011;3504;52.616;13.238;2024-03-02T21:42:15;35.33;;;22.43;;
6928;SDS011;3504;52.616;13.238;2024-03-02T21:47:15;33.63;;;23.03;;
6928;SDS011;3504;52.616;13.238;2024-03-02T21:52:19;39.83;;;25.30;;
6928;SDS011;3504;52.616;13.238;2024-03-02T21:57:19;33.10;;;23.90;;
6928;SDS011;3504;52.616;13.238;2024-03-02T22:02:20;40.27;;;26.40;;
6928;SDS011;3504;52.616;13.238;2024-03-02T22:07:20;43.30;;;27.70;;
6928;SDS011;3504;52.616;13.238;2024-03-02T22:12:21;46.93;;;30.00;;
6928;SDS011;3504;52.616;13.238;2024-03-02T22:17:21;48.57;;;30.83;;
6928;SDS011;3504;52.616;13.238;2024-03-02T22:22:22;45.20;;;28.87;;
6928;SDS011;3504;52.616;13.238;2024-03-02T22:27:23;48.47;;;31.37;;
6928;SDS011;3504;52.616;13.238;2024-03-02T22:32:23;44.13;;;28.27;;
6928;SDS011;3504;52.616;13.238;2024-03-02T22:37:24;45.40;;;30.67;;
6928;SDS011;3504;52.616;13.238;2024-03-02T22:42:24;46.27;;;31.17;;
6928;SDS011;3504;52.616;13.238;2024-03-02T22:47:25;48.43;;;32.60;;
6928;SDS011;3504;52.616;13.238;2024-03-02T22:52:25;48.90;;;31.87;;
6928;SDS011;3504;52.616;13.238;2024-03-02T22:57:26;52.67;;;32.33;;
6928;SDS011;3504;52.616;13.238;2024-03-02T23:02:26;45.03;;;30.77;;
6928;SDS011;3504;52.616;13.238;2024-03-02T23:07:26;47.87;;;31.33;;
6928;SDS011;3504;52.616;13.238;2024-03-02T23:12:27;48.37;;;32.20;;
6928;SDS011;3504;52.616;13.238;2024-03-02T23:17:27;46.17;;;31.43;;
6928;SDS011;3504;52.616;13.238;2024-03-02T23:22:28;49.80;;;32.43;;
6928;SDS011;3504;52.616;13.238;2024-03-02T23:27:29;48.70;;;33.23;;
6928;SDS011;3504;52.616;13.238;2024-03-02T23:32:29;48.53;;;33.03;;
6928;SDS011;3504;52.616;13.238;2024-03-02T23:37:30;52.07;;;33.53;;
6928;SDS011;3504;52.616;13.238;2024-03-02T23:42:31;51.67;;;32.70;;
6928;SDS011;3504;52.616;13.238;2024-03-02T23:47:32;64.20;;;34.77;;
6928;SDS011;3504;52.616;13.238;2024-03-02T23:52:33;54.93;;;34.93;;
6928;SDS011;3504;52.616;13.238;2024-03-02T23:57:33;54.13;;;34.30;;
